Airfield :
LOGIN :

Register | Disclaimer

   EN    FR    IT 

 










Legend :    VFR   Marginal VFR   IFR   Intensive IFR   Very Intensive IFR
Visi :
Ceiling :
>= 8 km
>= 3000ft
5 to 8 km
1000 to 3000 ft
1500m to 5 km
500 to 1000 ft
800 to 1500m
200 to 500 ft
< 800m
< 200 ft
Symbols :   Thunderstorms  Fog  Heavy snow  Heavy precipitations  Wind > 20 kt
SIGMETs :     Misc.  Thunderstorms  Icing  Turbulence  Mountain Waves  Volcanic Ashes







- Airport Elevation : 776 ft
- IATA code : RMS


ETAR - Ramstein Air Base

CURRENT METAR :
  • 210956Z AUTO 23012G21KT 9999 FEW190 22/19 A2983 RMK AO2 SLP100 T02220186 $

EXPIRED METARs :
  • 210856Z AUTO 24007G19KT 9999 FEW180 21/19 A2984 RMK AO2 SLP102 T02140191 50002 $
  • 210756Z AUTO 23009KT 9999 CLR 21/19 A2983 RMK AO2 SLP098 T02090186 $

TAF TAF ETAR
Valid from the 21 at 10:00 until the 22 at 16:00 UTC


211001Z 2110/2216 23015G25KT 9999 BKN050 520004 QNH2983INS
TEMPO 2111/2114 27025G35KT 8000 -SHRA BKN030
BECMG 2116/2117 26012KT 9999 SCT060 QNH2996INS
BECMG 2117/2118 27009KT 9999 FEW060 QNH2999INS
BECMG 2202/2203 26009KT 9999 BKN030 QNH3015INS
BECMG 2210/2211 25012G20KT 9999 BKN050 QNH3017INS TX24/2112Z TN08/2204Z
No reported NOTAMs for that airfield.



MET'MAP, your aeronautical weather chart ! - Copyright ORBIFLY December 2007 - Disclaimer

ORBIFLY MET'MAP TEAM :

Programming & Development : Alexandra Zaïnal
Concept & Development : Baudouin d'Aumeries
Co-Development & Prog : Marc-Olivier Méhu
Technical & hardware support : Manuel Goepfert

Contact : metmap@orbifly.com




SOURCES & CREDITS :

   NOAA